sensor_id;sensor_type;location;lat;lon;timestamp;temperature;humidity
22065;DHT22;11197;53.110;8.468;2023-12-20T00:00:57;6.90;99.90
22065;DHT22;11197;53.110;8.468;2023-12-20T00:03:22;6.80;99.90
22065;DHT22;11197;53.110;8.468;2023-12-20T00:05:49;6.80;99.90
22065;DHT22;11197;53.110;8.468;2023-12-20T00:08:16;6.80;99.90
22065;DHT22;11197;53.110;8.468;2023-12-20T00:10:42;6.80;99.90
22065;DHT22;11197;53.110;8.468;2023-12-20T00:13:08;6.80;99.90
22065;DHT22;11197;53.110;8.468;2023-12-20T00:15:34;6.80;99.90
22065;DHT22;11197;53.110;8.468;2023-12-20T00:18:00;6.80;99.90
22065;DHT22;11197;53.110;8.468;2023-12-20T00:20:27;6.70;99.90
22065;DHT22;11197;53.110;8.468;2023-12-20T00:22:57;6.70;99.90
22065;DHT22;11197;53.110;8.468;2023-12-20T00:25:26;6.70;99.90
22065;DHT22;11197;53.110;8.468;2023-12-20T00:27:52;6.70;99.90
22065;DHT22;11197;53.110;8.468;2023-12-20T00:30:18;6.70;99.90
22065;DHT22;11197;53.110;8.468;2023-12-20T00:32:44;6.60;99.90
22065;DHT22;11197;53.110;8.468;2023-12-20T00:35:15;6.60;99.90
22065;DHT22;11197;53.110;8.468;2023-12-20T00:37:41;6.60;99.90
22065;DHT22;11197;53.110;8.468;2023-12-20T00:40:08;6.60;99.90
22065;DHT22;11197;53.110;8.468;2023-12-20T00:42:33;6.60;99.90
22065;DHT22;11197;53.110;8.468;2023-12-20T00:45:00;6.50;99.90
22065;DHT22;11197;53.110;8.468;2023-12-20T00:47:26;6.60;99.90
22065;DHT22;11197;53.110;8.468;2023-12-20T00:49:51;6.60;99.90
22065;DHT22;11197;53.110;8.468;2023-12-20T00:52:18;6.50;99.90
22065;DHT22;11197;53.110;8.468;2023-12-20T00:54:44;6.60;99.90
22065;DHT22;11197;53.110;8.468;2023-12-20T00:57:10;6.50;99.90
22065;DHT22;11197;53.110;8.468;2023-12-20T00:59:35;6.50;99.90
22065;DHT22;11197;53.110;8.468;2023-12-20T01:02:01;6.40;99.90
22065;DHT22;11197;53.110;8.468;2023-12-20T01:04:27;6.50;99.90
22065;DHT22;11197;53.110;8.468;2023-12-20T01:06:53;6.40;99.90
22065;DHT22;11197;53.110;8.468;2023-12-20T01:09:19;6.40;99.90
22065;DHT22;11197;53.110;8.468;2023-12-20T01:11:45;6.40;99.90
22065;DHT22;11197;53.110;8.468;2023-12-20T01:14:12;6.30;99.90
22065;DHT22;11197;53.110;8.468;2023-12-20T01:16:37;6.30;99.90
22065;DHT22;11197;53.110;8.468;2023-12-20T01:19:03;6.30;99.90
22065;DHT22;11197;53.110;8.468;2023-12-20T01:21:29;6.30;99.90
22065;DHT22;11197;53.110;8.468;2023-12-20T01:23:54;6.30;99.90
22065;DHT22;11197;53.110;8.468;2023-12-20T01:26:20;6.30;99.90
22065;DHT22;11197;53.110;8.468;2023-12-20T01:28:46;6.30;99.90
22065;DHT22;11197;53.110;8.468;2023-12-20T01:31:11;6.30;99.90
22065;DHT22;11197;53.110;8.468;2023-12-20T01:33:37;6.30;99.90
22065;DHT22;11197;53.110;8.468;2023-12-20T01:36:03;6.30;99.90
22065;DHT22;11197;53.110;8.468;2023-12-20T01:38:29;6.30;99.90
22065;DHT22;11197;53.110;8.468;2023-12-20T01:40:55;6.30;99.90
22065;DHT22;11197;53.110;8.468;2023-12-20T01:43:21;6.30;99.90
22065;DHT22;11197;53.110;8.468;2023-12-20T01:45:47;6.30;99.90
22065;DHT22;11197;53.110;8.468;2023-12-20T01:48:15;6.30;99.90
22065;DHT22;11197;53.110;8.468;2023-12-20T01:50:41;6.30;99.90
22065;DHT22;11197;53.110;8.468;2023-12-20T01:53:10;6.30;99.90
22065;DHT22;11197;53.110;8.468;2023-12-20T01:55:39;6.30;99.90
22065;DHT22;11197;53.110;8.468;2023-12-20T01:58:08;6.30;99.90
22065;DHT22;11197;53.110;8.468;2023-12-20T02:00:34;6.30;99.90
22065;DHT22;11197;53.110;8.468;2023-12-20T02:03:01;6.30;99.90
22065;DHT22;11197;53.110;8.468;2023-12-20T02:05:30;6.30;99.90
22065;DHT22;11197;53.110;8.468;2023-12-20T02:07:55;6.30;99.90
22065;DHT22;11197;53.110;8.468;2023-12-20T02:10:21;6.20;99.90
22065;DHT22;11197;53.110;8.468;2023-12-20T02:12:47;6.20;99.90
22065;DHT22;11197;53.110;8.468;2023-12-20T02:15:13;6.20;99.90
22065;DHT22;11197;53.110;8.468;2023-12-20T02:17:39;6.20;99.90
22065;DHT22;11197;53.110;8.468;2023-12-20T02:20:06;6.10;99.90
22065;DHT22;11197;53.110;8.468;2023-12-20T02:22:32;6.20;99.90
22065;DHT22;11197;53.110;8.468;2023-12-20T02:24:57;6.20;99.90
22065;DHT22;11197;53.110;8.468;2023-12-20T02:27:23;6.20;99.90
22065;DHT22;11197;53.110;8.468;2023-12-20T02:29:50;6.20;99.90
22065;DHT22;11197;53.110;8.468;2023-12-20T02:32:19;6.20;99.90
22065;DHT22;11197;53.110;8.468;2023-12-20T02:34:47;6.20;99.90
22065;DHT22;11197;53.110;8.468;2023-12-20T02:37:13;6.20;99.90
22065;DHT22;11197;53.110;8.468;2023-12-20T02:39:39;6.20;99.90
22065;DHT22;11197;53.110;8.468;2023-12-20T02:42:04;6.20;99.90
22065;DHT22;11197;53.110;8.468;2023-12-20T02:44:30;6.20;99.90
22065;DHT22;11197;53.110;8.468;2023-12-20T02:46:56;6.20;99.90
22065;DHT22;11197;53.110;8.468;2023-12-20T02:49:21;6.20;99.90
22065;DHT22;11197;53.110;8.468;2023-12-20T02:51:47;6.20;99.90
22065;DHT22;11197;53.110;8.468;2023-12-20T02:54:13;6.20;99.90
22065;DHT22;11197;53.110;8.468;2023-12-20T02:56:38;6.20;99.90
22065;DHT22;11197;53.110;8.468;2023-12-20T02:59:04;6.20;99.90
22065;DHT22;11197;53.110;8.468;2023-12-20T03:01:31;6.20;99.90
22065;DHT22;11197;53.110;8.468;2023-12-20T03:03:57;6.20;99.90
22065;DHT22;11197;53.110;8.468;2023-12-20T03:06:23;6.20;99.90
22065;DHT22;11197;53.110;8.468;2023-12-20T03:08:48;6.20;99.90
22065;DHT22;11197;53.110;8.468;2023-12-20T03:11:14;6.20;99.90
22065;DHT22;11197;53.110;8.468;2023-12-20T03:13:40;6.20;99.90
22065;DHT22;11197;53.110;8.468;2023-12-20T03:16:13;6.20;99.90
22065;DHT22;11197;53.110;8.468;2023-12-20T03:18:39;6.20;99.90
22065;DHT22;11197;53.110;8.468;2023-12-20T03:21:05;6.20;99.90
22065;DHT22;11197;53.110;8.468;2023-12-20T03:23:31;6.20;99.90
22065;DHT22;11197;53.110;8.468;2023-12-20T03:25:58;6.20;99.90
22065;DHT22;11197;53.110;8.468;2023-12-20T03:28:24;6.20;99.90
22065;DHT22;11197;53.110;8.468;2023-12-20T03:30:50;6.20;99.90
22065;DHT22;11197;53.110;8.468;2023-12-20T03:33:16;6.20;99.90
22065;DHT22;11197;53.110;8.468;2023-12-20T03:35:41;6.20;99.90
22065;DHT22;11197;53.110;8.468;2023-12-20T03:38:07;6.20;99.90
22065;DHT22;11197;53.110;8.468;2023-12-20T03:40:33;6.20;99.90
22065;DHT22;11197;53.110;8.468;2023-12-20T03:42:59;6.20;99.90
22065;DHT22;11197;53.110;8.468;2023-12-20T03:45:25;6.30;99.90
22065;DHT22;11197;53.110;8.468;2023-12-20T03:47:50;6.30;99.90
22065;DHT22;11197;53.110;8.468;2023-12-20T03:50:22;6.30;99.90
22065;DHT22;11197;53.110;8.468;2023-12-20T03:52:47;6.30;99.90
22065;DHT22;11197;53.110;8.468;2023-12-20T03:55:13;6.30;99.90
22065;DHT22;11197;53.110;8.468;2023-12-20T03:57:39;6.30;99.90
22065;DHT22;11197;53.110;8.468;2023-12-20T04:00:06;6.30;99.90
22065;DHT22;11197;53.110;8.468;2023-12-20T04:02:38;6.30;99.90
22065;DHT22;11197;53.110;8.468;2023-12-20T04:05:04;6.30;99.90
22065;DHT22;11197;53.110;8.468;2023-12-20T04:07:30;6.30;99.90
22065;DHT22;11197;53.110;8.468;2023-12-20T04:09:56;6.30;99.90
22065;DHT22;11197;53.110;8.468;2023-12-20T04:12:22;6.30;99.90
22065;DHT22;11197;53.110;8.468;2023-12-20T04:14:48;6.30;99.90
22065;DHT22;11197;53.110;8.468;2023-12-20T04:17:14;6.30;99.90
22065;DHT22;11197;53.110;8.468;2023-12-20T04:19:41;6.30;99.90
22065;DHT22;11197;53.110;8.468;2023-12-20T04:22:07;6.30;99.90
22065;DHT22;11197;53.110;8.468;2023-12-20T04:24:33;6.30;99.90
22065;DHT22;11197;53.110;8.468;2023-12-20T04:26:58;6.30;99.90
22065;DHT22;11197;53.110;8.468;2023-12-20T04:29:24;6.40;99.90
22065;DHT22;11197;53.110;8.468;2023-12-20T04:31:49;6.40;99.90
22065;DHT22;11197;53.110;8.468;2023-12-20T04:34:17;6.40;99.90
22065;DHT22;11197;53.110;8.468;2023-12-20T04:36:43;6.40;99.90
22065;DHT22;11197;53.110;8.468;2023-12-20T04:39:09;6.30;99.90
22065;DHT22;11197;53.110;8.468;2023-12-20T04:41:35;6.30;99.90
22065;DHT22;11197;53.110;8.468;2023-12-20T04:44:01;6.30;99.90
22065;DHT22;11197;53.110;8.468;2023-12-20T04:46:27;6.30;99.90
22065;DHT22;11197;53.110;8.468;2023-12-20T04:48:53;6.30;99.90
22065;DHT22;11197;53.110;8.468;2023-12-20T04:51:18;6.30;99.90
22065;DHT22;11197;53.110;8.468;2023-12-20T04:53:44;6.30;99.90
22065;DHT22;11197;53.110;8.468;2023-12-20T04:56:10;6.30;99.90
22065;DHT22;11197;53.110;8.468;2023-12-20T04:58:35;6.30;99.90
22065;DHT22;11197;53.110;8.468;2023-12-20T05:01:01;6.30;99.90
22065;DHT22;11197;53.110;8.468;2023-12-20T05:03:27;6.30;99.90
22065;DHT22;11197;53.110;8.468;2023-12-20T05:05:53;6.30;99.90
22065;DHT22;11197;53.110;8.468;2023-12-20T05:08:18;6.30;99.90
22065;DHT22;11197;53.110;8.468;2023-12-20T05:10:45;6.40;99.90
22065;DHT22;11197;53.110;8.468;2023-12-20T05:13:10;6.40;99.90
22065;DHT22;11197;53.110;8.468;2023-12-20T05:15:36;6.40;99.90
22065;DHT22;11197;53.110;8.468;2023-12-20T05:18:02;6.40;99.90
22065;DHT22;11197;53.110;8.468;2023-12-20T05:20:27;6.40;99.90
22065;DHT22;11197;53.110;8.468;2023-12-20T05:22:53;6.40;99.90
22065;DHT22;11197;53.110;8.468;2023-12-20T05:25:19;6.50;99.90
22065;DHT22;11197;53.110;8.468;2023-12-20T05:27:44;6.40;99.90
22065;DHT22;11197;53.110;8.468;2023-12-20T05:30:11;6.40;99.90
22065;DHT22;11197;53.110;8.468;2023-12-20T05:32:36;6.40;99.90
22065;DHT22;11197;53.110;8.468;2023-12-20T05:35:02;6.40;99.90
22065;DHT22;11197;53.110;8.468;2023-12-20T05:37:28;6.40;99.90
22065;DHT22;11197;53.110;8.468;2023-12-20T05:39:54;6.40;99.90
22065;DHT22;11197;53.110;8.468;2023-12-20T05:42:20;6.40;99.90
22065;DHT22;11197;53.110;8.468;2023-12-20T05:44:45;6.40;99.90
22065;DHT22;11197;53.110;8.468;2023-12-20T05:47:11;6.40;99.90
22065;DHT22;11197;53.110;8.468;2023-12-20T05:49:37;6.40;99.90
22065;DHT22;11197;53.110;8.468;2023-12-20T05:52:02;6.40;99.90
22065;DHT22;11197;53.110;8.468;2023-12-20T05:54:28;6.40;99.90
22065;DHT22;11197;53.110;8.468;2023-12-20T05:56:54;6.50;99.90
22065;DHT22;11197;53.110;8.468;2023-12-20T05:59:20;6.50;99.90
22065;DHT22;11197;53.110;8.468;2023-12-20T06:01:45;6.50;99.90
22065;DHT22;11197;53.110;8.468;2023-12-20T06:04:11;6.50;99.90
22065;DHT22;11197;53.110;8.468;2023-12-20T06:06:41;6.50;99.90
22065;DHT22;11197;53.110;8.468;2023-12-20T06:09:07;6.60;99.90
22065;DHT22;11197;53.110;8.468;2023-12-20T06:11:33;6.50;99.90
22065;DHT22;11197;53.110;8.468;2023-12-20T06:13:59;6.60;99.90
22065;DHT22;11197;53.110;8.468;2023-12-20T06:16:24;6.60;99.90
22065;DHT22;11197;53.110;8.468;2023-12-20T06:18:50;6.60;99.90
22065;DHT22;11197;53.110;8.468;2023-12-20T06:21:15;6.60;99.90
22065;DHT22;11197;53.110;8.468;2023-12-20T06:23:41;6.60;99.90
22065;DHT22;11197;53.110;8.468;2023-12-20T06:26:07;6.60;99.90
22065;DHT22;11197;53.110;8.468;2023-12-20T06:28:33;6.60;99.90
22065;DHT22;11197;53.110;8.468;2023-12-20T06:30:58;6.60;99.90
22065;DHT22;11197;53.110;8.468;2023-12-20T06:33:26;6.60;99.90
22065;DHT22;11197;53.110;8.468;2023-12-20T06:35:51;6.60;99.90
22065;DHT22;11197;53.110;8.468;2023-12-20T06:38:18;6.60;99.90
22065;DHT22;11197;53.110;8.468;2023-12-20T06:40:44;6.60;99.90
22065;DHT22;11197;53.110;8.468;2023-12-20T06:43:11;6.70;99.90
22065;DHT22;11197;53.110;8.468;2023-12-20T06:45:37;6.60;99.90
22065;DHT22;11197;53.110;8.468;2023-12-20T06:48:03;6.70;99.90
22065;DHT22;11197;53.110;8.468;2023-12-20T06:50:29;6.70;99.90
22065;DHT22;11197;53.110;8.468;2023-12-20T06:52:54;6.70;99.90
22065;DHT22;11197;53.110;8.468;2023-12-20T06:55:20;6.60;99.90
22065;DHT22;11197;53.110;8.468;2023-12-20T06:57:46;6.70;99.90
22065;DHT22;11197;53.110;8.468;2023-12-20T07:00:12;6.70;99.90
22065;DHT22;11197;53.110;8.468;2023-12-20T07:02:38;6.70;99.90
22065;DHT22;11197;53.110;8.468;2023-12-20T07:05:04;6.70;99.90
22065;DHT22;11197;53.110;8.468;2023-12-20T07:07:30;6.70;99.90
22065;DHT22;11197;53.110;8.468;2023-12-20T07:09:55;6.70;99.90
22065;DHT22;11197;53.110;8.468;2023-12-20T07:12:21;6.70;99.90
22065;DHT22;11197;53.110;8.468;2023-12-20T07:14:47;6.70;99.90
22065;DHT22;11197;53.110;8.468;2023-12-20T07:17:13;6.70;99.90
22065;DHT22;11197;53.110;8.468;2023-12-20T07:19:41;6.70;99.90
22065;DHT22;11197;53.110;8.468;2023-12-20T07:22:07;6.80;99.90
22065;DHT22;11197;53.110;8.468;2023-12-20T07:24:33;6.70;99.90
22065;DHT22;11197;53.110;8.468;2023-12-20T07:27:02;6.70;99.90
22065;DHT22;11197;53.110;8.468;2023-12-20T07:29:27;6.70;99.90
22065;DHT22;11197;53.110;8.468;2023-12-20T07:31:53;6.80;99.90
22065;DHT22;11197;53.110;8.468;2023-12-20T07:34:22;6.70;99.90
22065;DHT22;11197;53.110;8.468;2023-12-20T07:36:48;6.70;99.90
22065;DHT22;11197;53.110;8.468;2023-12-20T07:39:14;6.70;99.90
22065;DHT22;11197;53.110;8.468;2023-12-20T07:41:40;6.80;99.90
22065;DHT22;11197;53.110;8.468;2023-12-20T07:44:06;6.80;99.90
22065;DHT22;11197;53.110;8.468;2023-12-20T07:46:32;6.80;99.90
22065;DHT22;11197;53.110;8.468;2023-12-20T07:48:58;6.80;99.90
22065;DHT22;11197;53.110;8.468;2023-12-20T07:51:23;6.80;99.90
22065;DHT22;11197;53.110;8.468;2023-12-20T07:53:51;6.80;99.90
22065;DHT22;11197;53.110;8.468;2023-12-20T07:56:18;6.80;99.90
22065;DHT22;11197;53.110;8.468;2023-12-20T07:58:44;6.90;99.90
22065;DHT22;11197;53.110;8.468;2023-12-20T08:01:11;6.80;99.90
22065;DHT22;11197;53.110;8.468;2023-12-20T08:03:37;6.90;99.90
22065;DHT22;11197;53.110;8.468;2023-12-20T08:06:03;6.90;99.90
22065;DHT22;11197;53.110;8.468;2023-12-20T08:08:28;6.90;99.90
22065;DHT22;11197;53.110;8.468;2023-12-20T08:10:54;6.90;99.90
22065;DHT22;11197;53.110;8.468;2023-12-20T08:13:20;6.90;99.90
22065;DHT22;11197;53.110;8.468;2023-12-20T08:15:50;6.90;99.90
22065;DHT22;11197;53.110;8.468;2023-12-20T08:18:16;6.90;99.90
22065;DHT22;11197;53.110;8.468;2023-12-20T08:20:41;7.00;99.90
22065;DHT22;11197;53.110;8.468;2023-12-20T08:23:07;6.90;99.90
22065;DHT22;11197;53.110;8.468;2023-12-20T08:25:32;7.00;99.90
22065;DHT22;11197;53.110;8.468;2023-12-20T08:27:58;7.00;99.90
22065;DHT22;11197;53.110;8.468;2023-12-20T08:30:24;7.00;99.90
22065;DHT22;11197;53.110;8.468;2023-12-20T08:32:50;7.00;99.90
22065;DHT22;11197;53.110;8.468;2023-12-20T08:35:16;7.00;99.90
22065;DHT22;11197;53.110;8.468;2023-12-20T08:37:43;7.00;99.90
22065;DHT22;11197;53.110;8.468;2023-12-20T08:40:09;7.00;99.90
22065;DHT22;11197;53.110;8.468;2023-12-20T08:42:35;7.00;99.90
22065;DHT22;11197;53.110;8.468;2023-12-20T08:45:01;7.10;99.90
22065;DHT22;11197;53.110;8.468;2023-12-20T08:47:26;7.10;99.90
22065;DHT22;11197;53.110;8.468;2023-12-20T08:49:52;7.10;99.90
22065;DHT22;11197;53.110;8.468;2023-12-20T08:52:25;7.10;99.90
22065;DHT22;11197;53.110;8.468;2023-12-20T08:54:53;7.10;99.90
22065;DHT22;11197;53.110;8.468;2023-12-20T08:57:22;7.20;99.90
22065;DHT22;11197;53.110;8.468;2023-12-20T08:59:49;7.20;99.90
22065;DHT22;11197;53.110;8.468;2023-12-20T09:02:16;7.20;99.90
22065;DHT22;11197;53.110;8.468;2023-12-20T09:04:42;7.10;99.90
22065;DHT22;11197;53.110;8.468;2023-12-20T09:07:27;7.10;99.90
22065;DHT22;11197;53.110;8.468;2023-12-20T09:09:55;7.10;99.90
22065;DHT22;11197;53.110;8.468;2023-12-20T09:12:21;7.20;99.90
22065;DHT22;11197;53.110;8.468;2023-12-20T09:14:48;7.20;99.90
22065;DHT22;11197;53.110;8.468;2023-12-20T09:17:15;7.20;99.90
22065;DHT22;11197;53.110;8.468;2023-12-20T09:19:42;7.20;99.90
22065;DHT22;11197;53.110;8.468;2023-12-20T09:22:09;7.20;99.90
22065;DHT22;11197;53.110;8.468;2023-12-20T09:24:35;7.20;99.90
22065;DHT22;11197;53.110;8.468;2023-12-20T09:27:01;7.20;99.90
22065;DHT22;11197;53.110;8.468;2023-12-20T09:29:27;7.30;99.90
22065;DHT22;11197;53.110;8.468;2023-12-20T09:31:52;7.40;99.90
22065;DHT22;11197;53.110;8.468;2023-12-20T09:34:18;7.40;99.90
22065;DHT22;11197;53.110;8.468;2023-12-20T09:36:44;7.40;99.90
22065;DHT22;11197;53.110;8.468;2023-12-20T09:39:17;7.30;99.90
22065;DHT22;11197;53.110;8.468;2023-12-20T09:44:28;7.00;99.90
22065;DHT22;11197;53.110;8.468;2023-12-20T09:47:23;6.90;99.90
22065;DHT22;11197;53.110;8.468;2023-12-20T09:49:50;6.70;99.90
22065;DHT22;11197;53.110;8.468;2023-12-20T09:52:18;6.60;99.90
22065;DHT22;11197;53.110;8.468;2023-12-20T09:54:44;6.60;99.90
22065;DHT22;11197;53.110;8.468;2023-12-20T09:57:11;6.60;99.90
22065;DHT22;11197;53.110;8.468;2023-12-20T09:59:36;6.60;99.90
22065;DHT22;11197;53.110;8.468;2023-12-20T10:02:04;6.50;99.90
22065;DHT22;11197;53.110;8.468;2023-12-20T10:04:32;6.40;99.90
22065;DHT22;11197;53.110;8.468;2023-12-20T10:07:02;6.50;99.90
22065;DHT22;11197;53.110;8.468;2023-12-20T10:09:32;6.50;99.90
22065;DHT22;11197;53.110;8.468;2023-12-20T10:12:00;6.40;99.90
22065;DHT22;11197;53.110;8.468;2023-12-20T10:14:25;6.40;99.90
22065;DHT22;11197;53.110;8.468;2023-12-20T10:16:51;6.40;99.90
22065;DHT22;11197;53.110;8.468;2023-12-20T10:19:17;6.40;99.90
22065;DHT22;11197;53.110;8.468;2023-12-20T10:21:43;6.40;99.90
22065;DHT22;11197;53.110;8.468;2023-12-20T10:24:17;6.30;99.90
22065;DHT22;11197;53.110;8.468;2023-12-20T10:26:43;6.30;99.90
22065;DHT22;11197;53.110;8.468;2023-12-20T10:29:10;6.30;99.90
22065;DHT22;11197;53.110;8.468;2023-12-20T10:31:36;6.30;99.90
22065;DHT22;11197;53.110;8.468;2023-12-20T10:34:04;6.30;99.90
22065;DHT22;11197;53.110;8.468;2023-12-20T10:36:33;6.30;99.90
22065;DHT22;11197;53.110;8.468;2023-12-20T10:38:59;6.30;99.90
22065;DHT22;11197;53.110;8.468;2023-12-20T10:41:27;6.30;99.90
22065;DHT22;11197;53.110;8.468;2023-12-20T10:44:01;6.30;99.90
22065;DHT22;11197;53.110;8.468;2023-12-20T10:46:29;6.30;99.90
22065;DHT22;11197;53.110;8.468;2023-12-20T10:48:56;6.30;99.90
22065;DHT22;11197;53.110;8.468;2023-12-20T10:51:23;6.30;99.90
22065;DHT22;11197;53.110;8.468;2023-12-20T10:53:50;6.30;99.90
22065;DHT22;11197;53.110;8.468;2023-12-20T10:56:17;6.30;99.90
22065;DHT22;11197;53.110;8.468;2023-12-20T10:58:44;6.30;99.90
22065;DHT22;11197;53.110;8.468;2023-12-20T11:01:18;6.30;99.90
22065;DHT22;11197;53.110;8.468;2023-12-20T11:03:50;6.30;99.90
22065;DHT22;11197;53.110;8.468;2023-12-20T11:11:44;6.90;99.90
22065;DHT22;11197;53.110;8.468;2023-12-20T11:14:29;7.30;99.90
22065;DHT22;11197;53.110;8.468;2023-12-20T11:17:08;7.60;99.90
22065;DHT22;11197;53.110;8.468;2023-12-20T11:19:36;7.80;99.90
22065;DHT22;11197;53.110;8.468;2023-12-20T11:22:04;7.80;99.90
22065;DHT22;11197;53.110;8.468;2023-12-20T11:24:31;7.70;99.90
22065;DHT22;11197;53.110;8.468;2023-12-20T11:26:59;7.60;99.90
22065;DHT22;11197;53.110;8.468;2023-12-20T11:29:33;7.50;99.90
22065;DHT22;11197;53.110;8.468;2023-12-20T11:34:51;7.30;99.90
22065;DHT22;11197;53.110;8.468;2023-12-20T11:37:19;7.30;99.90
22065;DHT22;11197;53.110;8.468;2023-12-20T11:39:53;7.20;99.90
22065;DHT22;11197;53.110;8.468;2023-12-20T11:42:20;7.20;99.90
22065;DHT22;11197;53.110;8.468;2023-12-20T11:44:46;7.20;99.90
22065;DHT22;11197;53.110;8.468;2023-12-20T11:47:13;7.10;99.90
22065;DHT22;11197;53.110;8.468;2023-12-20T11:49:43;7.20;99.90
22065;DHT22;11197;53.110;8.468;2023-12-20T11:52:09;7.70;99.90
22065;DHT22;11197;53.110;8.468;2023-12-20T11:54:34;8.10;99.90
22065;DHT22;11197;53.110;8.468;2023-12-20T11:57:02;8.40;99.90
22065;DHT22;11197;53.110;8.468;2023-12-20T11:59:27;8.50;99.90
22065;DHT22;11197;53.110;8.468;2023-12-20T12:01:53;8.30;99.90
22065;DHT22;11197;53.110;8.468;2023-12-20T12:04:21;8.20;99.90
22065;DHT22;11197;53.110;8.468;2023-12-20T12:06:47;8.00;99.90
22065;DHT22;11197;53.110;8.468;2023-12-20T12:09:13;7.90;99.90
22065;DHT22;11197;53.110;8.468;2023-12-20T12:11:38;7.70;99.90
22065;DHT22;11197;53.110;8.468;2023-12-20T12:14:04;7.70;99.90
22065;DHT22;11197;53.110;8.468;2023-12-20T12:16:30;7.60;99.90
22065;DHT22;11197;53.110;8.468;2023-12-20T12:18:56;7.60;99.90
22065;DHT22;11197;53.110;8.468;2023-12-20T12:21:23;7.60;99.90
22065;DHT22;11197;53.110;8.468;2023-12-20T12:23:48;7.50;99.90
22065;DHT22;11197;53.110;8.468;2023-12-20T12:26:14;7.50;99.90
22065;DHT22;11197;53.110;8.468;2023-12-20T12:28:40;7.50;99.90
22065;DHT22;11197;53.110;8.468;2023-12-20T12:31:07;7.50;99.90
22065;DHT22;11197;53.110;8.468;2023-12-20T12:33:33;7.40;99.90
22065;DHT22;11197;53.110;8.468;2023-12-20T12:36:00;7.50;99.90
22065;DHT22;11197;53.110;8.468;2023-12-20T12:38:27;7.40;99.90
22065;DHT22;11197;53.110;8.468;2023-12-20T12:40:54;7.50;99.90
22065;DHT22;11197;53.110;8.468;2023-12-20T12:43:20;7.40;99.90
22065;DHT22;11197;53.110;8.468;2023-12-20T12:45:48;7.50;99.90
22065;DHT22;11197;53.110;8.468;2023-12-20T12:48:14;7.50;99.90
22065;DHT22;11197;53.110;8.468;2023-12-20T12:50:40;7.50;99.90
22065;DHT22;11197;53.110;8.468;2023-12-20T12:53:05;7.50;99.90
22065;DHT22;11197;53.110;8.468;2023-12-20T12:55:31;7.40;99.90
22065;DHT22;11197;53.110;8.468;2023-12-20T12:57:57;7.40;99.90
22065;DHT22;11197;53.110;8.468;2023-12-20T13:00:23;7.40;99.90
22065;DHT22;11197;53.110;8.468;2023-12-20T13:02:49;7.30;99.90
22065;DHT22;11197;53.110;8.468;2023-12-20T13:05:15;7.30;99.90
22065;DHT22;11197;53.110;8.468;2023-12-20T13:07:41;7.30;99.90
22065;DHT22;11197;53.110;8.468;2023-12-20T13:10:06;7.20;99.90
22065;DHT22;11197;53.110;8.468;2023-12-20T13:12:32;7.20;99.90
22065;DHT22;11197;53.110;8.468;2023-12-20T13:14:58;7.20;99.90
22065;DHT22;11197;53.110;8.468;2023-12-20T13:17:23;7.20;99.90
22065;DHT22;11197;53.110;8.468;2023-12-20T13:19:49;7.20;99.90
22065;DHT22;11197;53.110;8.468;2023-12-20T13:22:15;7.20;99.90
22065;DHT22;11197;53.110;8.468;2023-12-20T13:24:41;7.20;99.90
22065;DHT22;11197;53.110;8.468;2023-12-20T13:27:10;7.20;99.90
22065;DHT22;11197;53.110;8.468;2023-12-20T13:29:35;7.20;99.90
22065;DHT22;11197;53.110;8.468;2023-12-20T13:32:01;7.20;99.90
22065;DHT22;11197;53.110;8.468;2023-12-20T13:34:29;7.20;99.90
22065;DHT22;11197;53.110;8.468;2023-12-20T13:36:54;7.20;99.90
22065;DHT22;11197;53.110;8.468;2023-12-20T13:39:20;7.20;99.90
22065;DHT22;11197;53.110;8.468;2023-12-20T13:41:46;7.20;99.90
22065;DHT22;11197;53.110;8.468;2023-12-20T13:44:13;7.20;99.90
22065;DHT22;11197;53.110;8.468;2023-12-20T13:46:41;7.20;99.90
22065;DHT22;11197;53.110;8.468;2023-12-20T13:49:06;7.20;99.90
22065;DHT22;11197;53.110;8.468;2023-12-20T13:51:32;7.20;99.90
22065;DHT22;11197;53.110;8.468;2023-12-20T13:53:58;7.20;99.90
22065;DHT22;11197;53.110;8.468;2023-12-20T13:56:25;7.20;99.90
22065;DHT22;11197;53.110;8.468;2023-12-20T13:58:50;7.20;99.90
22065;DHT22;11197;53.110;8.468;2023-12-20T14:01:17;7.20;99.90
22065;DHT22;11197;53.110;8.468;2023-12-20T14:03:42;7.10;99.90
22065;DHT22;11197;53.110;8.468;2023-12-20T14:06:08;7.20;99.90
22065;DHT22;11197;53.110;8.468;2023-12-20T14:08:34;7.10;99.90
22065;DHT22;11197;53.110;8.468;2023-12-20T14:11:01;7.10;99.90
22065;DHT22;11197;53.110;8.468;2023-12-20T14:13:27;7.10;99.90
22065;DHT22;11197;53.110;8.468;2023-12-20T14:15:52;7.20;99.90
22065;DHT22;11197;53.110;8.468;2023-12-20T14:18:20;7.10;99.90
22065;DHT22;11197;53.110;8.468;2023-12-20T14:20:48;7.10;99.90
22065;DHT22;11197;53.110;8.468;2023-12-20T14:23:13;7.10;99.90
22065;DHT22;11197;53.110;8.468;2023-12-20T14:25:42;7.10;99.90
22065;DHT22;11197;53.110;8.468;2023-12-20T14:28:08;7.10;99.90
22065;DHT22;11197;53.110;8.468;2023-12-20T14:30:33;7.10;99.90
22065;DHT22;11197;53.110;8.468;2023-12-20T14:33:00;7.10;99.90
22065;DHT22;11197;53.110;8.468;2023-12-20T14:35:26;7.00;99.90
22065;DHT22;11197;53.110;8.468;2023-12-20T14:37:51;7.10;99.90
22065;DHT22;11197;53.110;8.468;2023-12-20T14:40:17;7.10;99.90
22065;DHT22;11197;53.110;8.468;2023-12-20T14:42:44;7.10;99.90
22065;DHT22;11197;53.110;8.468;2023-12-20T14:45:10;7.00;99.90
22065;DHT22;11197;53.110;8.468;2023-12-20T14:47:36;7.00;99.90
22065;DHT22;11197;53.110;8.468;2023-12-20T14:50:03;7.00;99.90
22065;DHT22;11197;53.110;8.468;2023-12-20T14:52:30;7.00;99.90
22065;DHT22;11197;53.110;8.468;2023-12-20T14:54:55;7.00;99.90
22065;DHT22;11197;53.110;8.468;2023-12-20T14:57:21;7.00;99.90
22065;DHT22;11197;53.110;8.468;2023-12-20T14:59:47;7.10;99.90
22065;DHT22;11197;53.110;8.468;2023-12-20T15:02:12;7.00;99.90
22065;DHT22;11197;53.110;8.468;2023-12-20T15:04:38;7.10;99.90
22065;DHT22;11197;53.110;8.468;2023-12-20T15:07:03;7.10;99.90
22065;DHT22;11197;53.110;8.468;2023-12-20T15:09:31;7.10;99.90
22065;DHT22;11197;53.110;8.468;2023-12-20T15:11:57;7.10;99.90
22065;DHT22;11197;53.110;8.468;2023-12-20T15:14:23;7.10;99.90
22065;DHT22;11197;53.110;8.468;2023-12-20T15:16:48;7.00;99.90
22065;DHT22;11197;53.110;8.468;2023-12-20T15:19:14;7.00;99.90
22065;DHT22;11197;53.110;8.468;2023-12-20T15:21:40;7.10;99.90
22065;DHT22;11197;53.110;8.468;2023-12-20T15:24:11;7.10;99.90
22065;DHT22;11197;53.110;8.468;2023-12-20T15:26:42;7.00;99.90
22065;DHT22;11197;53.110;8.468;2023-12-20T15:29:08;7.10;99.90
22065;DHT22;11197;53.110;8.468;2023-12-20T15:31:42;7.00;99.90
22065;DHT22;11197;53.110;8.468;2023-12-20T15:34:08;7.00;99.90
22065;DHT22;11197;53.110;8.468;2023-12-20T15:36:34;7.00;99.90
22065;DHT22;11197;53.110;8.468;2023-12-20T15:38:59;7.00;99.90
22065;DHT22;11197;53.110;8.468;2023-12-20T15:41:25;7.00;99.90
22065;DHT22;11197;53.110;8.468;2023-12-20T15:43:51;7.00;99.90
22065;DHT22;11197;53.110;8.468;2023-12-20T15:46:16;7.00;99.90
22065;DHT22;11197;53.110;8.468;2023-12-20T15:48:42;7.00;99.90
22065;DHT22;11197;53.110;8.468;2023-12-20T15:51:09;7.00;99.90